SBOSBO MRU / FIMP
Speedbird OnlineSpeedbird Online MRU / FIMP

Sir Seewoosagur Ramgoolam International Airport
05:38 24°C

Location Plaisance, Mauritius
Latitude: -20.430201
Longitude: 57.683601
Web Airport Website | Wikipedia
Altitude 57 Meter / 186 Feet
Distance 9,754 KM / 6,061 Miles
from London.
Time Zone UTC +4 hours (Indian/Mauritius)
Codes IATA: MRU
ICAO: FIMP
Currency £1 equals MUR 54.55
Runways
RunwayLength (m)Surface
143370Asphalt
323370Asphalt
Radio
TypeDescriptionFrequency
A/GINFO347.6
APPAPP119.1
ATISATIS126.2
TWRTWR118.1
Live ATC
METAR FIMP 270100Z 06003KT 0800W 1000E RA FEW005 FEW012CB BKN013 BKN045 24/24 Q1010
TAF TAF COR FIMP 262330Z 2700/2806 VRB03KT 1000 RA/TSRA FEW004 FEW012CB BKN013 BECMG 2703/2705 35008KT 5000 RA FEW008 BKN014 PROB30 TEMPO 2703/2715 RA/TSRA FEW004 FEW012CB BKN013
Weather As Of 27 Jan 2023 05:38
Description Moderate rain
Wind 6 km/h from North-East (60°)
Cloud Cover 75%
Precipitation Rain: none, Snow: none
Sunrise 05:49
Sunset 18:54
Lounges ATOL Lounge , International Departures
Rotations During the last 90 days there were
33 flights from LGW
35 flights to LGW



Support Speedbird Online

© 2017-2023 Speedbird Online